createdAt,value
2022-11-13T00:00:43.464Z,8.75
2022-11-13T00:03:31.314Z,9.43
2022-11-13T00:06:19.648Z,9.00
2022-11-13T00:09:06.353Z,8.73
2022-11-13T00:11:52.831Z,8.87
2022-11-13T00:14:40.191Z,8.43
2022-11-13T00:17:29.378Z,9.23
2022-11-13T00:20:16.453Z,9.50
2022-11-13T00:23:04.163Z,10.60
2022-11-13T00:25:51.102Z,9.82
2022-11-13T00:28:38.101Z,9.95
2022-11-13T00:31:25.116Z,10.27
2022-11-13T00:34:41.032Z,10.37
2022-11-13T00:37:20.171Z,10.85
2022-11-13T00:40:07.893Z,10.00
2022-11-13T00:42:54.563Z,10.48
2022-11-13T00:45:41.312Z,11.02
2022-11-13T00:48:28.293Z,10.45
2022-11-13T00:51:16.460Z,10.30
2022-11-13T00:54:03.357Z,11.13
2022-11-13T00:56:50.281Z,11.20
2022-11-13T00:59:36.708Z,11.50
2022-11-13T01:02:23.285Z,11.65
2022-11-13T01:05:10.253Z,10.60
2022-11-13T01:07:58.644Z,12.15
2022-11-13T01:10:52.968Z,11.98
2022-11-13T01:13:41.987Z,12.30
2022-11-13T01:16:29.718Z,11.70
2022-11-13T01:19:16.605Z,36.03
2022-11-13T01:22:03.550Z,23.63
2022-11-13T01:24:52.719Z,18.93
2022-11-13T01:27:40.061Z,14.83
2022-11-13T01:30:27.086Z,12.88
2022-11-13T01:33:13.632Z,9.90
2022-11-13T01:36:04.881Z,10.20
2022-11-13T01:38:52.162Z,9.30
2022-11-13T01:41:40.942Z,8.93
2022-11-13T01:44:29.049Z,9.10
2022-11-13T01:47:16.308Z,9.60
2022-11-13T01:50:03.723Z,9.43
2022-11-13T01:52:50.593Z,10.57
2022-11-13T01:55:37.665Z,9.70
2022-11-13T01:58:26.165Z,9.90
2022-11-13T02:01:13.531Z,10.70
2022-11-13T02:04:00.103Z,9.27
2022-11-13T02:06:49.551Z,9.05
2022-11-13T02:09:40.843Z,9.25
2022-11-13T02:12:35.254Z,9.02
2022-11-13T02:15:26.590Z,8.68
2022-11-13T02:18:13.818Z,8.70
2022-11-13T02:21:07.138Z,8.85
2022-11-13T02:24:01.419Z,9.13
2022-11-13T02:26:50.790Z,7.65
2022-11-13T02:29:38.359Z,8.90
2022-11-13T02:32:25.323Z,8.02
2022-11-13T02:35:12.886Z,8.35
2022-11-13T02:38:01.137Z,9.05
2022-11-13T02:40:48.211Z,8.13
2022-11-13T02:43:36.716Z,8.00
2022-11-13T02:46:23.498Z,8.30
2022-11-13T02:49:10.128Z,8.90
2022-11-13T02:51:57.340Z,8.75
2022-11-13T02:54:43.921Z,8.07
2022-11-13T02:57:30.504Z,8.00
2022-11-13T03:00:20.263Z,8.25
2022-11-13T03:03:06.710Z,8.27
2022-11-13T03:05:53.165Z,8.23
2022-11-13T03:08:39.989Z,7.60
2022-11-13T03:11:26.939Z,7.95
2022-11-13T03:14:14.170Z,6.90
2022-11-13T03:17:02.221Z,8.07
2022-11-13T03:19:49.098Z,8.07
2022-11-13T03:22:36.063Z,7.88
2022-11-13T03:25:22.814Z,7.53
2022-11-13T03:28:09.374Z,7.30
2022-11-13T03:30:56.439Z,7.13
2022-11-13T03:33:44.596Z,7.15
2022-11-13T03:36:31.538Z,7.43
2022-11-13T03:39:18.266Z,7.38
2022-11-13T03:42:05.123Z,7.50
2022-11-13T03:44:51.831Z,7.88
2022-11-13T03:47:38.477Z,7.97
2022-11-13T03:50:26.378Z,7.95
2022-11-13T03:53:13.145Z,7.93
2022-11-13T03:56:00.163Z,7.95
2022-11-13T03:58:49.594Z,8.13
2022-11-13T04:01:36.327Z,8.40
2022-11-13T04:04:23.575Z,8.27
2022-11-13T04:07:11.906Z,7.90
2022-11-13T04:09:58.500Z,8.50
2022-11-13T04:12:45.189Z,8.38
2022-11-13T04:15:32.103Z,8.38
2022-11-13T04:18:18.799Z,7.63
2022-11-13T04:21:07.106Z,7.63
2022-11-13T04:23:55.122Z,7.47
2022-11-13T04:26:41.829Z,8.18
2022-11-13T04:29:28.971Z,7.53
2022-11-13T04:32:15.537Z,7.60
2022-11-13T04:35:02.462Z,7.95
2022-11-13T04:37:48.956Z,8.02
2022-11-13T04:40:36.992Z,7.75
2022-11-13T04:43:22.922Z,7.60
2022-11-13T04:46:09.533Z,8.37
2022-11-13T04:48:55.890Z,8.30
2022-11-13T04:51:42.653Z,8.43
2022-11-13T04:54:29.427Z,7.55
2022-11-13T04:57:17.890Z,8.37
2022-11-13T05:00:06.612Z,8.07
2022-11-13T05:02:54.028Z,8.10
2022-11-13T05:05:40.477Z,8.63
2022-11-13T05:08:27.358Z,8.13
2022-11-13T05:11:14.603Z,8.02
2022-11-13T05:14:03.758Z,8.27
2022-11-13T05:16:51.819Z,8.02
2022-11-13T05:19:39.664Z,7.97
2022-11-13T05:22:26.533Z,8.15
2022-11-13T05:25:12.876Z,8.15
2022-11-13T05:27:59.927Z,8.27
2022-11-13T05:30:47.851Z,8.20
2022-11-13T05:33:35.207Z,8.23
2022-11-13T05:36:23.386Z,8.30
2022-11-13T05:39:09.926Z,7.55
2022-11-13T05:41:56.592Z,7.60
2022-11-13T05:44:43.125Z,7.15
2022-11-13T05:47:31.002Z,8.10
2022-11-13T05:50:18.112Z,8.40
2022-11-13T05:53:04.779Z,7.27
2022-11-13T05:55:51.333Z,7.70
2022-11-13T05:58:38.155Z,7.70
2022-11-13T06:01:27.268Z,7.38
2022-11-13T06:04:15.620Z,8.27
2022-11-13T06:07:04.243Z,7.85
2022-11-13T06:09:51.051Z,8.20
2022-11-13T06:12:37.574Z,7.32
2022-11-13T06:15:24.126Z,7.10
2022-11-13T06:18:10.809Z,7.60
2022-11-13T06:21:02.627Z,7.05
2022-11-13T06:23:49.957Z,7.40
2022-11-13T06:26:37.642Z,7.75
2022-11-13T06:29:24.395Z,7.90
2022-11-13T06:32:11.474Z,8.60
2022-11-13T06:34:57.954Z,7.95
2022-11-13T06:37:45.903Z,7.80
2022-11-13T06:40:32.664Z,8.65
2022-11-13T06:43:19.070Z,8.52
2022-11-13T06:46:07.352Z,8.00
2022-11-13T06:48:54.626Z,7.85
2022-11-13T06:51:41.572Z,8.00
2022-11-13T06:54:29.698Z,9.00
2022-11-13T06:57:16.573Z,7.50
2022-11-13T07:00:03.678Z,7.45
2022-11-13T07:02:51.108Z,8.15
2022-11-13T07:05:38.436Z,8.25
2022-11-13T07:08:25.451Z,9.00
2022-11-13T07:11:16.754Z,8.48
2022-11-13T07:14:03.550Z,8.23
2022-11-13T07:17:08.784Z,8.50
2022-11-13T07:19:56.565Z,8.98
2022-11-13T07:22:43.456Z,8.32
2022-11-13T07:25:30.407Z,8.70
2022-11-13T07:28:18.918Z,8.85
2022-11-13T07:31:06.634Z,8.60
2022-11-13T07:33:53.095Z,9.38
2022-11-13T07:36:39.511Z,8.88
2022-11-13T07:39:26.075Z,8.50
2022-11-13T07:42:13.215Z,8.43
2022-11-13T07:45:01.365Z,8.23
2022-11-13T07:47:48.215Z,8.80
2022-11-13T07:50:37.313Z,8.68
2022-11-13T07:53:24.491Z,8.60
2022-11-13T07:56:11.447Z,9.00
2022-11-13T07:58:58.148Z,8.65
2022-11-13T08:01:46.213Z,8.50
2022-11-13T08:04:33.008Z,8.00
2022-11-13T08:07:20.003Z,7.95
2022-11-13T08:10:07.848Z,8.55
2022-11-13T08:13:01.089Z,7.82
2022-11-13T08:15:47.768Z,7.78
2022-11-13T08:18:35.745Z,7.85
2022-11-13T08:21:22.864Z,8.07
2022-11-13T08:24:10.768Z,7.65
2022-11-13T08:26:58.089Z,8.25
2022-11-13T08:29:45.571Z,7.70
2022-11-13T08:32:32.466Z,7.22
2022-11-13T08:35:25.256Z,7.88
2022-11-13T08:38:15.677Z,7.20
2022-11-13T08:41:08.591Z,7.78
2022-11-13T08:43:56.309Z,7.30
2022-11-13T08:46:42.687Z,7.30
2022-11-13T08:49:29.290Z,7.20
2022-11-13T08:52:17.746Z,6.60
2022-11-13T08:55:04.587Z,7.35
2022-11-13T08:57:51.330Z,6.32
2022-11-13T09:00:38.331Z,6.63
2022-11-13T09:03:25.131Z,6.45
2022-11-13T09:06:11.822Z,6.40
2022-11-13T09:09:00.047Z,5.90
2022-11-13T09:11:47.045Z,6.50
2022-11-13T09:14:33.580Z,6.07
2022-11-13T09:17:20.664Z,6.00
2022-11-13T09:20:13.542Z,5.30
2022-11-13T09:23:02.584Z,4.50
2022-11-13T09:25:51.119Z,4.65
2022-11-13T09:28:37.922Z,4.13
2022-11-13T09:31:24.879Z,4.28
2022-11-13T09:34:11.793Z,4.28
2022-11-13T09:36:58.376Z,5.53
2022-11-13T09:39:45.260Z,4.65
2022-11-13T09:42:34.393Z,4.60
2022-11-13T09:45:21.155Z,4.70
2022-11-13T09:48:21.663Z,4.05
2022-11-13T09:51:14.023Z,4.70
2022-11-13T09:54:05.664Z,4.38
2022-11-13T09:57:07.025Z,3.40
2022-11-13T10:00:00.858Z,3.70
2022-11-13T10:03:09.828Z,3.80
2022-11-13T10:06:04.394Z,3.60
2022-11-13T10:08:57.250Z,4.55
2022-11-13T10:11:49.972Z,4.40
2022-11-13T10:14:42.876Z,3.90
2022-11-13T10:17:36.741Z,3.95
2022-11-13T10:20:26.956Z,3.78
2022-11-13T10:23:20.035Z,4.05
2022-11-13T10:26:15.997Z,4.20
2022-11-13T10:29:11.625Z,4.10
2022-11-13T10:31:59.503Z,3.45
2022-11-13T10:35:02.008Z,3.60
2022-11-13T10:38:02.120Z,3.70
2022-11-13T10:40:53.563Z,3.80
2022-11-13T10:43:56.586Z,3.53
2022-11-13T10:46:43.466Z,3.97
2022-11-13T10:49:30.724Z,3.40
2022-11-13T10:52:21.647Z,3.30
2022-11-13T10:55:21.892Z,2.85
2022-11-13T10:58:16.307Z,3.35
2022-11-13T11:01:03.003Z,3.78
2022-11-13T11:03:51.095Z,3.10
2022-11-13T11:09:49.734Z,4.97
2022-11-13T11:12:36.862Z,3.70
2022-11-13T11:15:27.916Z,3.40
2022-11-13T11:18:24.905Z,3.50
2022-11-13T11:21:17.416Z,3.72
2022-11-13T11:24:10.686Z,2.88
2022-11-13T11:27:05.415Z,3.97
2022-11-13T11:30:02.433Z,3.30
2022-11-13T11:32:57.327Z,3.10
2022-11-13T11:35:47.110Z,3.25
2022-11-13T11:38:41.482Z,3.70
2022-11-13T11:41:35.524Z,2.90
2022-11-13T11:44:29.972Z,2.80
2022-11-13T11:47:19.073Z,3.30
2022-11-13T11:50:11.913Z,2.63
2022-11-13T11:53:05.210Z,2.53
2022-11-13T11:56:18.420Z,2.30
2022-11-13T11:59:32.379Z,2.20
2022-11-13T12:02:57.242Z,2.70
2022-11-13T12:05:51.116Z,2.40
2022-11-13T12:08:47.036Z,2.15
2022-11-13T12:11:36.131Z,2.20
2022-11-13T12:14:34.143Z,2.30
2022-11-13T12:17:36.517Z,2.00
2022-11-13T12:20:36.279Z,2.00
2022-11-13T12:23:33.598Z,2.40
2022-11-13T12:26:27.351Z,2.05
2022-11-13T12:29:38.842Z,1.70
2022-11-13T12:32:40.259Z,2.10
2022-11-13T12:35:30.366Z,1.67
2022-11-13T12:38:29.074Z,1.40
2022-11-13T12:41:24.518Z,1.50
2022-11-13T12:44:24.196Z,1.60
2022-11-13T12:47:11.745Z,1.77
2022-11-13T12:50:03.294Z,1.77
2022-11-13T12:53:04.038Z,1.95
2022-11-13T12:56:00.250Z,1.80
2022-11-13T12:59:23.900Z,1.75
2022-11-13T13:02:21.303Z,1.90
2022-11-13T13:05:19.812Z,1.90
2022-11-13T13:08:27.288Z,2.40
2022-11-13T13:11:21.094Z,2.40
2022-11-13T13:14:23.870Z,2.10
2022-11-13T13:17:20.399Z,2.00
2022-11-13T13:20:28.906Z,2.00
2022-11-13T13:23:28.514Z,1.80
2022-11-13T13:26:19.753Z,1.95
2022-11-13T13:29:19.008Z,1.92
2022-11-13T13:32:20.694Z,3.00
2022-11-13T13:35:16.443Z,3.40
2022-11-13T13:38:10.388Z,2.90
2022-11-13T13:41:16.679Z,2.00
2022-11-13T13:44:23.222Z,1.90
2022-11-13T13:47:16.917Z,2.20
2022-11-13T13:50:08.302Z,2.50
2022-11-13T13:52:58.048Z,2.28
2022-11-13T13:55:49.161Z,2.80
2022-11-13T13:58:39.203Z,2.65
2022-11-13T14:01:32.295Z,2.67
2022-11-13T14:04:21.346Z,2.80
2022-11-13T14:07:21.692Z,2.80
2022-11-13T14:10:15.344Z,2.90
2022-11-13T14:13:01.894Z,2.65
2022-11-13T14:15:50.155Z,2.33
2022-11-13T14:18:37.586Z,2.58
2022-11-13T14:21:25.089Z,2.50
2022-11-13T14:24:22.258Z,2.50
2022-11-13T14:27:16.426Z,2.60
2022-11-13T14:30:07.241Z,2.40
2022-11-13T14:32:55.944Z,2.70
2022-11-13T14:35:42.570Z,2.80
2022-11-13T14:38:33.009Z,3.05
2022-11-13T14:41:25.467Z,3.00
2022-11-13T14:44:12.726Z,2.70
2022-11-13T14:47:04.578Z,2.87
2022-11-13T14:49:52.582Z,2.90
2022-11-13T14:52:39.122Z,2.35
2022-11-13T14:55:28.515Z,2.80
2022-11-13T14:58:15.700Z,2.70
2022-11-13T15:01:16.361Z,2.60
2022-11-13T15:04:03.079Z,2.58
2022-11-13T15:06:55.578Z,2.83
2022-11-13T15:09:42.284Z,2.55
2022-11-13T15:12:29.751Z,2.00
2022-11-13T15:15:19.018Z,2.70
2022-11-13T15:18:07.398Z,2.80
2022-11-13T15:20:54.734Z,3.50
2022-11-13T15:23:43.077Z,3.58
2022-11-13T15:26:29.786Z,3.13
2022-11-13T15:29:16.765Z,2.90
2022-11-13T15:32:03.645Z,2.92
2022-11-13T15:34:50.474Z,3.40
2022-11-13T15:37:37.175Z,3.35
2022-11-13T15:40:25.611Z,3.20
2022-11-13T15:43:19.139Z,2.50
2022-11-13T15:46:11.182Z,2.78
2022-11-13T15:48:57.697Z,2.33
2022-11-13T15:51:46.423Z,3.60
2022-11-13T15:54:35.358Z,3.00
2022-11-13T15:57:25.452Z,2.70
2022-11-13T16:00:15.976Z,3.35
2022-11-13T16:03:04.696Z,3.90
2022-11-13T16:05:51.561Z,5.03
2022-11-13T16:08:38.146Z,4.60
2022-11-13T16:11:25.153Z,4.10
2022-11-13T16:14:13.293Z,4.50
2022-11-13T16:17:00.150Z,4.95
2022-11-13T16:19:49.491Z,6.00
2022-11-13T16:22:36.029Z,6.75
2022-11-13T16:25:23.745Z,8.40
2022-11-13T16:28:16.183Z,7.53
2022-11-13T16:31:04.461Z,7.50
2022-11-13T16:33:51.491Z,5.03
2022-11-13T16:36:38.559Z,4.78
2022-11-13T16:39:25.083Z,2.33
2022-11-13T16:42:12.191Z,3.00
2022-11-13T16:44:59.022Z,3.50
2022-11-13T16:47:47.414Z,3.60
2022-11-13T16:50:36.905Z,3.55
2022-11-13T16:53:23.360Z,3.70
2022-11-13T16:56:15.111Z,5.50
2022-11-13T16:59:01.997Z,9.40
2022-11-13T17:01:48.507Z,15.25
2022-11-13T17:04:36.801Z,18.55
2022-11-13T17:07:23.950Z,22.00
2022-11-13T17:13:20.810Z,20.05
2022-11-13T17:16:07.674Z,17.77
2022-11-13T17:18:54.375Z,16.83
2022-11-13T17:21:44.442Z,11.70
2022-11-13T17:24:31.574Z,11.50
2022-11-13T17:27:18.733Z,10.50
2022-11-13T17:30:06.423Z,9.43
2022-11-13T17:32:53.356Z,8.75
2022-11-13T17:35:39.908Z,7.53
2022-11-13T17:38:28.825Z,8.45
2022-11-13T17:41:17.134Z,8.40
2022-11-13T17:44:04.030Z,9.10
2022-11-13T17:46:52.040Z,8.43
2022-11-13T17:49:38.716Z,8.40
2022-11-13T17:52:25.384Z,8.10
2022-11-13T17:55:14.044Z,5.97
2022-11-13T17:58:01.539Z,6.43
2022-11-13T18:00:48.313Z,7.95
2022-11-13T18:03:35.108Z,9.77
2022-11-13T18:06:22.171Z,8.90
2022-11-13T18:09:08.953Z,8.98
2022-11-13T18:11:57.836Z,6.55
2022-11-13T18:14:44.343Z,4.60
2022-11-13T18:17:30.834Z,6.00
2022-11-13T18:20:17.889Z,6.22
2022-11-13T18:23:04.749Z,7.70
2022-11-13T18:25:52.733Z,6.93
2022-11-13T18:28:42.213Z,6.65
2022-11-13T18:31:29.570Z,7.00
2022-11-13T18:34:17.755Z,6.80
2022-11-13T18:37:04.359Z,7.10
2022-11-13T18:39:51.255Z,6.93
2022-11-13T18:42:38.136Z,7.15
2022-11-13T18:45:26.126Z,6.37
2022-11-13T18:48:12.927Z,6.25
2022-11-13T18:51:01.231Z,5.10
2022-11-13T18:53:49.426Z,5.30
2022-11-13T18:56:35.911Z,5.78
2022-11-13T18:59:22.958Z,5.05
2022-11-13T19:02:12.892Z,5.13
2022-11-13T19:04:59.836Z,4.70
2022-11-13T19:07:46.561Z,4.90
2022-11-13T19:10:35.198Z,5.00
2022-11-13T19:13:21.961Z,4.57
2022-11-13T19:16:11.083Z,4.40
2022-11-13T19:19:01.034Z,3.90
2022-11-13T19:21:48.418Z,3.67
2022-11-13T19:24:35.351Z,4.30
2022-11-13T19:27:21.790Z,3.83
2022-11-13T19:30:09.096Z,3.42
2022-11-13T19:32:55.592Z,3.05
2022-11-13T19:35:43.536Z,2.92
2022-11-13T19:38:30.592Z,2.92
2022-11-13T19:41:17.818Z,3.55
2022-11-13T19:44:06.529Z,3.10
2022-11-13T19:46:53.736Z,3.17
2022-11-13T19:49:40.486Z,3.10
2022-11-13T19:52:28.904Z,3.30
2022-11-13T19:55:15.857Z,3.50
2022-11-13T19:58:02.897Z,3.30
2022-11-13T20:00:50.070Z,3.20
2022-11-13T20:03:37.640Z,3.70
2022-11-13T20:06:24.888Z,3.70
2022-11-13T20:09:14.130Z,3.70
2022-11-13T20:12:01.163Z,3.35
2022-11-13T20:14:48.937Z,3.20
2022-11-13T20:17:35.538Z,3.55
2022-11-13T20:20:22.169Z,3.30
2022-11-13T20:23:08.817Z,4.00
2022-11-13T20:25:58.158Z,4.00
2022-11-13T20:28:44.857Z,3.90
2022-11-13T20:31:31.626Z,4.00
2022-11-13T20:34:18.404Z,4.25
2022-11-13T20:37:04.954Z,4.10
2022-11-13T20:39:51.992Z,4.50
2022-11-13T20:42:39.858Z,4.30
2022-11-13T20:45:27.559Z,4.20
2022-11-13T20:48:14.167Z,4.00
2022-11-13T20:51:06.905Z,4.85
2022-11-13T20:53:54.862Z,4.85
2022-11-13T20:56:41.718Z,4.60
2022-11-13T20:59:29.786Z,4.78
2022-11-13T21:02:16.717Z,5.82
2022-11-13T21:05:03.385Z,5.87
2022-11-13T21:07:49.898Z,5.88
2022-11-13T21:10:36.400Z,5.88
2022-11-13T21:13:23.122Z,5.30
2022-11-13T21:16:12.103Z,4.43
2022-11-13T21:19:00.637Z,5.80
2022-11-13T21:21:47.155Z,5.60
2022-11-13T21:24:33.707Z,6.13
2022-11-13T21:27:20.259Z,4.80
2022-11-13T21:30:08.120Z,4.50
2022-11-13T21:32:56.074Z,3.70
2022-11-13T21:35:42.769Z,5.07
2022-11-13T21:38:29.690Z,5.60
2022-11-13T21:41:22.473Z,6.70
2022-11-13T21:44:10.812Z,5.90
2022-11-13T21:46:57.637Z,5.60
2022-11-13T21:49:45.506Z,4.90
2022-11-13T21:52:32.757Z,5.13
2022-11-13T21:55:19.467Z,4.97
2022-11-13T21:58:06.054Z,5.15
2022-11-13T22:00:52.955Z,5.63
2022-11-13T22:03:39.744Z,5.00
2022-11-13T22:06:28.777Z,5.80
2022-11-13T22:09:17.253Z,6.18
2022-11-13T22:12:04.969Z,6.18
2022-11-13T22:14:51.904Z,5.70
2022-11-13T22:17:38.950Z,5.53
2022-11-13T22:20:25.808Z,5.60
2022-11-13T22:23:13.979Z,5.82
2022-11-13T22:26:03.396Z,5.57
2022-11-13T22:28:50.869Z,6.03
2022-11-13T22:31:38.146Z,5.95
2022-11-13T22:34:24.772Z,5.63
2022-11-13T22:37:11.433Z,6.38
2022-11-13T22:39:59.536Z,6.20
2022-11-13T22:42:48.323Z,6.28
2022-11-13T22:45:35.705Z,5.93
2022-11-13T22:48:22.103Z,6.38
2022-11-13T22:51:11.706Z,5.50
2022-11-13T22:53:59.855Z,6.60
2022-11-13T22:56:48.221Z,7.03
2022-11-13T22:59:34.838Z,6.95
2022-11-13T23:02:21.548Z,7.00
2022-11-13T23:05:08.636Z,6.80
2022-11-13T23:07:55.390Z,6.85
2022-11-13T23:10:41.907Z,7.20
2022-11-13T23:13:29.918Z,7.35
2022-11-13T23:16:17.548Z,7.50
2022-11-13T23:19:04.688Z,7.25
2022-11-13T23:21:51.672Z,6.72
2022-11-13T23:24:38.233Z,7.10
2022-11-13T23:27:24.773Z,6.10
2022-11-13T23:30:14.327Z,6.70
2022-11-13T23:33:01.346Z,6.80
2022-11-13T23:35:48.351Z,6.40
2022-11-13T23:38:35.381Z,6.70
2022-11-13T23:41:21.984Z,6.60
2022-11-13T23:44:09.749Z,6.50
2022-11-13T23:46:57.909Z,6.63
2022-11-13T23:49:44.782Z,6.97
2022-11-13T23:52:31.439Z,6.90
2022-11-13T23:55:19.352Z,6.57
2022-11-13T23:58:08.100Z,6.40
